Sept-Iles, Canada
Current Conditions -  °F | °C
As of 3:00 AM on Friday 19 Dec 2014 (Local Time) from CYZV Reporting Station
Broken Clouds Broken Clouds  
Wind Chill: 21°   Ceiling: 8200
Heat Index: 28°   Visibility: 15mi
Dew Point:   Wind: 7mph
Humidity: 31%   Direction: 350°N
Pressure: 29.74"   Gusts: NA
Location:  50.21°N, 66.39°W
Report Text: CYZV 190800Z 35006KT 15SM BKN082 M02/M17 A2974 RMK AC6 SLP075
Loading
Personal Weather Stations






























Interactive Weather Map New forecast layout! Learn more

10-Day Weather Forecast

Advertisements
Track Severe Weather on mobile